Terminal Aerodrome Forecast
Issued by NWS Charleston, WV

Current Version | Previous Version | Graphics & Text | Print | Product List | Glossary On
Versions: 1 2 3 4 5 6 7 8 9 10 11 12 13 14 15 16 17 18 19 20 21 22 23
000
FTUS41 KRLX 262300
TAFPKB
TAF
KPKB 262338Z 2700/2724 32007KT P6SM SCT080
     FM270300 34006KT 5SM -SHSN BR BKN025
     FM271100 33004KT P6SM SCT030=

USA.gov is the U.S. government's official web portal to all federal, state and local government web resources and services.